Hueysville, Kentucky
Current Conditions -  °F | °C
As of 12:15 AM on Friday 31 Oct 2014 (Local Time) from KPBX Reporting Station
Clear Clear  
Wind Chill: 42°   Ceiling: Unl
Heat Index: 42°   Visibility: 10mi
Dew Point: 33°   Wind: 3mph
Humidity: 71%   Direction: 110°ESE
Pressure: 30.03"   Gusts: NA
Location:  37.5°N, 82.83°W
Report Text: KPBX 310415Z AUTO 11003KT 10SM CLR 06/01 A3003 RMK AO2 T00550007
Loading
Personal Weather Stations






























Interactive Weather Map
Tropical Storm Tracking
New forecast layout! Learn more

10-Day Weather Forecast

Advertisements
Track Severe Weather on mobile